• Join FlightAware (Why Join?)
  • Login
  • US Flag 
04:42PM EST


 

Airport Tracker/Info


-or-


 

Live Flight TrackerFlight Track Log ✈ AAY891 ✈ 07-May-2014 ✈ KFWA - KPIE

Flight Track Log - Related Links

Times and Time Zones

All times are in EDT time to prevent confusion due to time zone crossing. See the AAY891 flight status page for this flight to view local times or setup timezone preferences in your user account.

Time Position Orientation Groundspeed Altitude Reporting Facility
EDT Latitude Longitude Course Direction KTS MPH feet Rate Location/Type
07:31PM 40.5436 -85.2760 184° South 358 412 14,300  Level FlightAware ADS-B
07:32PM 40.4858 -85.2834 186° South 351 404 15,900 2,400 Climbing FlightAware ADS-B
07:32PM 40.4073 -85.2942 186° South 357 411 17,700 2,160 Climbing FlightAware ADS-B
07:33PM 40.3567 -85.3008 185° South 365 420 18,800 1,980 Climbing FlightAware ADS-B
07:34PM 40.3033 -85.3073 185° South 371 427 19,800 1,620 Climbing FlightAware ADS-B
07:34PM 40.2276 -85.3167 185° South 390 449 20,900 1,680 Climbing FlightAware ADS-B
07:35PM 40.1480 -85.3268 186° South 400 460 22,300 1,860 Climbing FlightAware ADS-B
07:35PM 40.0913 -85.3339 185° South 404 465 23,200 1,740 Climbing FlightAware ADS-B
07:36PM 40.0303 -85.3415 186° South 409 471 24,100 1,620 Climbing FlightAware ADS-B
07:37PM 39.9716 -85.3488 185° South 413 475 24,900 720 Climbing FlightAware ADS-B
07:37PM 39.8977 -85.3581 185° South 413 475 25,000 60 Climbing FlightAware ADS-B
07:38PM 39.8366 -85.3657 185° South 413 475 25,000 720 Level FlightAware ADS-B
07:41PM 39.4801 -85.4101 186° South 429 494 27,700 900 Climbing FlightAware ADS-B
07:42PM 39.8102 -85.3690 172° South 453 521 29,200 1,020 Climbing FlightAware ADS-B
07:43PM 39.7100 -85.3815 172° South 459 528 30,400 1,080 Climbing FlightAware ADS-B (KCVG)
07:46PM 39.4657 -85.4119 180° South 465 535 32,900 1,140 Climbing FlightAware ADS-B
07:47PM 39.0493 -85.3512 173° South 465 535 35,200 1,020 Climbing FlightAware ADS-B
07:50PM 39.4657 -85.4119 174° South 454 522 37,000 480 Climbing FlightAware ADS-B
07:51PM 38.2072 -85.2939 174° South 453 521 37,000  Level Indianapolis Center
07:56PM 37.6127 -85.2150 174° South 452 520 37,000  Level FlightAware ADS-B (KCVG)
07:57PM 37.4811 -85.1979 174° South 452 520 37,000  Level FlightAware ADS-B (EPWR / WRO)
07:57PM 37.4144 -85.1894 174° South 452 520 37,000  Level FlightAware ADS-B (EPWR / WRO)
07:58PM 37.3093 -85.1759 174° South 452 520 37,000  Level FlightAware ADS-B (EPWR / WRO)
07:59PM 37.2464 -85.1677 174° South 451 519 37,000  Level FlightAware ADS-B (EPWR / WRO)
07:59PM 37.1601 -85.1566 174° South 450 518 37,000  Level FlightAware ADS-B (EPWR / WRO)
08:01PM 36.9731 -85.1327 174° South 451 519 37,000  Level FlightAware ADS-B (KMDQ)
08:02PM 36.9542 -85.1303 174° South 454 522 37,000  Level FlightAware ADS-B (KMDQ)
08:04PM 36.5931 -85.0844 174° South 461 531 37,000  Level FlightAware ADS-B (KMDQ)
08:05PM 36.5053 -85.0733 174° South 462 532 37,000  Level FlightAware ADS-B (KMDQ)
08:05PM 36.4280 -85.0635 174° South 463 533 37,000  Level FlightAware ADS-B (KMDQ)
08:06PM 36.3335 -85.0516 174° South 464 534 37,000  Level FlightAware ADS-B (KMDQ)
08:06PM 36.2626 -85.0428 174° South 466 536 37,000  Level FlightAware ADS-B (KMDQ)
08:07PM 36.1646 -85.0306 174° South 468 539 37,000  Level FlightAware ADS-B (KMDQ)
08:08PM 36.0867 -85.0208 174° South 469 540 37,000  Level FlightAware ADS-B (KMDQ)
08:09PM 35.9955 -85.0094 174° South 470 541 37,000  Level FlightAware ADS-B (KMDQ)
08:09PM 35.9032 -84.9979 174° South 471 542 37,000  Level FlightAware ADS-B (KMDQ)
08:10PM 35.8243 -84.9881 174° South 471 542 37,000  Level FlightAware ADS-B (KMDQ)
08:11PM 35.6828 -84.9706 174° South 470 541 37,000  Level FlightAware ADS-B (KMDQ)
08:11PM 35.6033 -84.9608 174° South 471 542 37,000  Level FlightAware ADS-B (KMDQ)
08:12PM 35.5458 -84.9537 174° South 472 543 37,000  Level FlightAware ADS-B (KMDQ)
08:13PM 35.4399 -84.9407 174° South 472 543 37,000  Level FlightAware ADS-B (KMDQ)
08:14PM 35.3353 -84.9279 174° South 471 542 37,000  Level FlightAware ADS-B (KMDQ)
08:14PM 35.2503 -84.9176 174° South 471 542 37,000  Level FlightAware ADS-B (KMDQ)
08:15PM 35.1811 -84.9092 175° South 471 542 37,000  Level FlightAware ADS-B (KMDQ)
08:15PM 35.0911 -84.8985 174° South 470 541 37,000  Level FlightAware ADS-B (KMDQ)
08:16PM 35.0477 -84.8932 174° South 470 541 37,000  Level FlightAware ADS-B (KMDQ)
08:19PM 34.2810 -84.8014 174° South 467 537 37,000  Level FlightAware ADS-B (KDZJ)
08:20PM 34.1943 -84.7912 174° South 467 537 37,000  Level FlightAware ADS-B (KDZJ)
08:20PM 34.1051 -84.7806 174° South 467 537 37,000 60 Level FlightAware ADS-B (KDZJ)
08:21PM 34.0188 -84.7702 174° South 466 536 37,100  Climbing FlightAware ADS-B (KDZJ)
08:22PM 33.9300 -84.7592 174° South 472 543 37,000 -120 Descending FlightAware ADS-B (KDZJ)
08:22PM 33.8445 -84.7488 174° South 465 535 37,000  Level FlightAware ADS-B (KDZJ)
08:23PM 33.7749 -84.7406 174° South 466 536 37,000  Level FlightAware ADS-B (KDZJ)
08:23PM 34.0489 -84.7758 174° South 478 550 37,000  Level Atlanta Center
08:24PM 33.9175 -84.7622 175° South 478 550 37,000  Level Atlanta Center
08:25PM 33.7861 -84.7436 173° South 478 550 37,000  Level Atlanta Center
08:26PM 33.6544 -84.7275 174° South 478 550 37,000  Level Atlanta Center
08:27PM 33.5231 -84.7142 175° South 478 550 37,000  Level Atlanta Center
08:28PM 33.3897 -84.6981 174° South 478 550 37,100  Climbing Atlanta Center
08:29PM 33.2542 -84.6822 174° South 478 550 37,000 -60 Descending Atlanta Center
08:30PM 33.1183 -84.6689 175° South 483 556 37,000  Level Atlanta Center
08:31PM 32.9850 -84.6506 173° South 483 556 37,000  Level Atlanta Center
08:32PM 32.8494 -84.6347 174° South 483 556 37,000  Level Atlanta Center
08:33PM 32.7117 -84.6189 174° South 483 556 37,000  Level Atlanta Center
08:34PM 32.5739 -84.6058 175° South 488 562 37,000  Level Atlanta Center
08:35PM 32.4364 -84.5875 174° South 498 573 37,000  Level Atlanta Center
08:36PM 32.2967 -84.5572 170° South 503 579 37,000  Level Atlanta Center
08:37PM 32.1611 -84.5197 167° South 503 579 37,000  Level Atlanta Center
08:38PM 32.0439 -84.4881 167° South 505 581 37,000  Level Jacksonville Center
08:39PM 31.9064 -84.4514 167° South 521 600 37,000  Level Jacksonville Center
08:40PM 31.7669 -84.4125 167° South 521 600 37,000  Level Jacksonville Center
08:41PM 31.6275 -84.3711 166° South 521 600 37,000  Level Jacksonville Center
08:42PM 31.4925 -84.3178 161° South 516 594 37,000  Level Jacksonville Center
08:48PM 30.7195 -84.0377 163° South 529 609 37,000  Level FlightAware ADS-B (KTLH)
08:49PM 30.5072 -83.9620 163° South 527 606 37,000  Level FlightAware ADS-B (KTLH)
08:50PM 30.4029 -83.9249 163° South 528 608 37,000  Level FlightAware ADS-B (KTLH)
08:51PM 30.2470 -83.8696 163° South 529 609 37,000  Level FlightAware ADS-B (KTLH)
08:52PM 30.1609 -83.8391 163° South 529 609 37,000  Level FlightAware ADS-B (KTLH)
08:53PM 29.9544 -83.7675 163° South 522 601 37,000 -240 Level Jacksonville Center
08:54PM 29.8253 -83.7233 163° South 533 613 36,500 -1,380 Descending Jacksonville Center
08:55PM 29.6858 -83.6742 163° South 528 608 34,300 -2,160 Descending Jacksonville Center
08:56PM 29.5525 -83.6278 163° South 516 594 32,200 -2,040 Descending Jacksonville Center
08:57PM 29.4211 -83.5817 163° South 504 580 30,300 -1,980 Descending Jacksonville Center
08:58PM 29.2983 -83.5378 163° South 482 555 28,300 -2,040 Descending Jacksonville Center
08:59PM 29.1794 -83.4847 159° South 469 540 26,300 -1,860 Descending Jacksonville Center
09:05PM 28.5919 -83.1110 151° Southeast 351 404 15,800 -1,740 Descending FlightAware ADS-B (KMCO)
09:06PM 28.4983 -83.0514 151° Southeast 341 392 14,400 -1,320 Descending Miami Center
09:07PM 28.4500 -83.0167 148° Southeast 324 373 13,500 -1,320 Descending Tampa TRACON
09:08PM 28.3667 -82.9667 152° Southeast 325 374 12,300 -1,200 Descending Tampa TRACON
09:09PM 28.2833 -82.9333 161° South 286 329 11,100 -1,320 Descending Tampa TRACON
09:10PM 28.2167 -82.9000 156° South 272 313 9,600 -1,680 Descending Tampa TRACON
09:11PM 28.1500 -82.8833 168° South 257 296 7,600 -2,220 Descending Tampa TRACON
09:12PM 28.0667 -82.8500 161° South 253 291 5,200 -1,740 Descending Tampa TRACON
09:13PM 28.0000 -82.8333 168° South 248 285 4,200 -1,140 Descending Tampa TRACON
09:14PM 27.9500 -82.8167 164° South 223 257 3,000 -1,080 Descending Tampa TRACON
09:15PM 27.9000 -82.8000 164° South 212 244 2,200 -780 Descending Tampa TRACON
09:16PM 27.8500 -82.7833 164° South 195 224 1,600 -360 Descending Tampa TRACON
09:17PM 27.8167 -82.7333 127° Southeast 168 193 1,600 -300 Level Tampa TRACON
09:18PM 27.8333 -82.6833 69° East 146 168 1,100 -480 Descending Tampa TRACON
09:19PM 27.8667 -82.6833 360° North 121 139 700 -360 Descending Tampa TRACON
09:20PM 27.9117 -82.6903 352° North 132 152 200 -360 Descending Miami Center